sensor_id;sensor_type;location;lat;lon;timestamp;pressure;altitude;pressure_sealevel;temperature
69590;BMP180;56792;50.644;17.984;2022-10-31T00:02:04;100020.80;;;8.60
69590;BMP180;56792;50.644;17.984;2022-10-31T00:04:36;100018.00;;;8.60
69590;BMP180;56792;50.644;17.984;2022-10-31T00:07:08;100023.20;;;8.60
69590;BMP180;56792;50.644;17.984;2022-10-31T00:09:40;100023.60;;;8.60
69590;BMP180;56792;50.644;17.984;2022-10-31T00:12:11;100025.20;;;8.60
69590;BMP180;56792;50.644;17.984;2022-10-31T00:14:43;100024.80;;;8.68
69590;BMP180;56792;50.644;17.984;2022-10-31T00:17:14;100028.00;;;8.70
69590;BMP180;56792;50.644;17.984;2022-10-31T00:19:46;100035.80;;;8.70
69590;BMP180;56792;50.644;17.984;2022-10-31T00:22:18;100030.40;;;8.70
69590;BMP180;56792;50.644;17.984;2022-10-31T00:24:50;100033.00;;;8.70
69590;BMP180;56792;50.644;17.984;2022-10-31T00:27:21;100034.60;;;8.70
69590;BMP180;56792;50.644;17.984;2022-10-31T00:29:53;100038.60;;;8.70
69590;BMP180;56792;50.644;17.984;2022-10-31T00:32:25;100039.60;;;8.68
69590;BMP180;56792;50.644;17.984;2022-10-31T00:34:56;100037.20;;;8.60
69590;BMP180;56792;50.644;17.984;2022-10-31T00:37:28;100038.80;;;8.60
69590;BMP180;56792;50.644;17.984;2022-10-31T00:40:00;100038.00;;;8.60
69590;BMP180;56792;50.644;17.984;2022-10-31T00:42:31;100040.80;;;8.68
69590;BMP180;56792;50.644;17.984;2022-10-31T00:45:04;100041.20;;;8.68
69590;BMP180;56792;50.644;17.984;2022-10-31T00:47:36;100043.20;;;8.60
69590;BMP180;56792;50.644;17.984;2022-10-31T00:50:09;100040.40;;;8.66
69590;BMP180;56792;50.644;17.984;2022-10-31T00:52:42;100039.20;;;8.64
69590;BMP180;56792;50.644;17.984;2022-10-31T00:55:13;100036.20;;;8.60
69590;BMP180;56792;50.644;17.984;2022-10-31T00:57:47;100038.40;;;8.60
69590;BMP180;56792;50.644;17.984;2022-10-31T01:00:20;100039.80;;;8.50
69590;BMP180;56792;50.644;17.984;2022-10-31T01:02:52;100040.00;;;8.50
69590;BMP180;56792;50.644;17.984;2022-10-31T01:05:24;100041.40;;;8.50
69590;BMP180;56792;50.644;17.984;2022-10-31T01:07:56;100040.60;;;8.40
69590;BMP180;56792;50.644;17.984;2022-10-31T01:10:30;100046.40;;;8.40
69590;BMP180;56792;50.644;17.984;2022-10-31T01:13:01;100047.20;;;8.40
69590;BMP180;56792;50.644;17.984;2022-10-31T01:15:33;100047.80;;;8.40
69590;BMP180;56792;50.644;17.984;2022-10-31T01:18:04;100044.80;;;8.30
69590;BMP180;56792;50.644;17.984;2022-10-31T01:20:36;100049.40;;;8.30
69590;BMP180;56792;50.644;17.984;2022-10-31T01:23:08;100046.00;;;8.30
69590;BMP180;56792;50.644;17.984;2022-10-31T01:25:39;100049.00;;;8.20
69590;BMP180;56792;50.644;17.984;2022-10-31T01:28:12;100043.40;;;8.20
69590;BMP180;56792;50.644;17.984;2022-10-31T01:30:44;100041.20;;;8.20
69590;BMP180;56792;50.644;17.984;2022-10-31T01:33:16;100041.00;;;8.20
69590;BMP180;56792;50.644;17.984;2022-10-31T01:35:47;100038.60;;;8.10
69590;BMP180;56792;50.644;17.984;2022-10-31T01:38:19;100038.20;;;8.10
69590;BMP180;56792;50.644;17.984;2022-10-31T01:40:51;100032.40;;;8.10
69590;BMP180;56792;50.644;17.984;2022-10-31T01:43:23;100034.20;;;8.00
69590;BMP180;56792;50.644;17.984;2022-10-31T01:45:56;100033.40;;;8.00
69590;BMP180;56792;50.644;17.984;2022-10-31T01:48:30;100029.40;;;8.00
69590;BMP180;56792;50.644;17.984;2022-10-31T01:51:03;100031.00;;;7.92
69590;BMP180;56792;50.644;17.984;2022-10-31T01:53:37;100032.20;;;7.90
69590;BMP180;56792;50.644;17.984;2022-10-31T01:56:10;100028.80;;;7.90
69590;BMP180;56792;50.644;17.984;2022-10-31T01:58:43;100030.40;;;7.86
69590;BMP180;56792;50.644;17.984;2022-10-31T02:01:19;100028.80;;;7.80
69590;BMP180;56792;50.644;17.984;2022-10-31T02:03:52;100030.80;;;7.80
69590;BMP180;56792;50.644;17.984;2022-10-31T02:06:35;100030.80;;;7.74
69590;BMP180;56792;50.644;17.984;2022-10-31T02:09:08;100030.60;;;7.70
69590;BMP180;56792;50.644;17.984;2022-10-31T02:11:42;100033.00;;;7.70
69590;BMP180;56792;50.644;17.984;2022-10-31T02:14:16;100033.40;;;7.70
69590;BMP180;56792;50.644;17.984;2022-10-31T02:16:49;100024.40;;;7.60
69590;BMP180;56792;50.644;17.984;2022-10-31T02:19:30;100021.80;;;7.60
69590;BMP180;56792;50.644;17.984;2022-10-31T02:22:15;100026.60;;;7.60
69590;BMP180;56792;50.644;17.984;2022-10-31T02:25:02;100032.00;;;7.60
69590;BMP180;56792;50.644;17.984;2022-10-31T02:28:13;100030.00;;;7.60
69590;BMP180;56792;50.644;17.984;2022-10-31T02:31:20;100030.20;;;7.60
69590;BMP180;56792;50.644;17.984;2022-10-31T02:34:00;100035.20;;;7.60
69590;BMP180;56792;50.644;17.984;2022-10-31T02:36:42;100031.60;;;7.60
69590;BMP180;56792;50.644;17.984;2022-10-31T02:39:25;100034.80;;;7.50
69590;BMP180;56792;50.644;17.984;2022-10-31T02:42:07;100034.40;;;7.50
69590;BMP180;56792;50.644;17.984;2022-10-31T02:44:48;100035.60;;;7.50
69590;BMP180;56792;50.644;17.984;2022-10-31T02:47:26;100040.20;;;7.50
69590;BMP180;56792;50.644;17.984;2022-10-31T02:50:02;100039.20;;;7.40
69590;BMP180;56792;50.644;17.984;2022-10-31T02:52:37;100039.80;;;7.40
69590;BMP180;56792;50.644;17.984;2022-10-31T02:55:54;100043.40;;;7.40
69590;BMP180;56792;50.644;17.984;2022-10-31T02:58:35;100046.80;;;7.30
69590;BMP180;56792;50.644;17.984;2022-10-31T03:01:36;100049.20;;;7.40
69590;BMP180;56792;50.644;17.984;2022-10-31T03:04:52;100049.40;;;7.40
69590;BMP180;56792;50.644;17.984;2022-10-31T03:07:41;100052.20;;;7.30
69590;BMP180;56792;50.644;17.984;2022-10-31T03:10:26;100050.60;;;7.30
69590;BMP180;56792;50.644;17.984;2022-10-31T03:13:10;100057.60;;;7.28
69590;BMP180;56792;50.644;17.984;2022-10-31T03:15:48;100054.20;;;7.20
69590;BMP180;56792;50.644;17.984;2022-10-31T03:18:29;100056.60;;;7.20
69590;BMP180;56792;50.644;17.984;2022-10-31T03:21:09;100057.60;;;7.20
69590;BMP180;56792;50.644;17.984;2022-10-31T03:23:46;100057.00;;;7.20
69590;BMP180;56792;50.644;17.984;2022-10-31T03:26:25;100060.20;;;7.10
69590;BMP180;56792;50.644;17.984;2022-10-31T03:29:02;100063.00;;;7.10
69590;BMP180;56792;50.644;17.984;2022-10-31T03:31:41;100061.80;;;7.10
69590;BMP180;56792;50.644;17.984;2022-10-31T03:34:20;100067.40;;;7.10
69590;BMP180;56792;50.644;17.984;2022-10-31T03:36:57;100075.20;;;7.10
69590;BMP180;56792;50.644;17.984;2022-10-31T03:39:32;100075.60;;;7.10
69590;BMP180;56792;50.644;17.984;2022-10-31T03:42:11;100079.00;;;7.10
69590;BMP180;56792;50.644;17.984;2022-10-31T03:44:51;100080.20;;;7.10
69590;BMP180;56792;50.644;17.984;2022-10-31T03:47:25;100079.20;;;7.02
69590;BMP180;56792;50.644;17.984;2022-10-31T03:49:58;100075.40;;;7.00
69590;BMP180;56792;50.644;17.984;2022-10-31T03:52:37;100083.60;;;7.00
69590;BMP180;56792;50.644;17.984;2022-10-31T03:55:18;100083.60;;;7.00
69590;BMP180;56792;50.644;17.984;2022-10-31T03:57:59;100080.20;;;7.00
69590;BMP180;56792;50.644;17.984;2022-10-31T04:00:36;100080.80;;;6.98
69590;BMP180;56792;50.644;17.984;2022-10-31T04:03:15;100084.60;;;6.90
69590;BMP180;56792;50.644;17.984;2022-10-31T04:05:53;100086.20;;;6.90
69590;BMP180;56792;50.644;17.984;2022-10-31T04:08:29;100088.80;;;6.90
69590;BMP180;56792;50.644;17.984;2022-10-31T04:11:04;100086.00;;;6.90
69590;BMP180;56792;50.644;17.984;2022-10-31T04:13:45;100079.40;;;6.90
69590;BMP180;56792;50.644;17.984;2022-10-31T04:16:24;100090.60;;;6.90
69590;BMP180;56792;50.644;17.984;2022-10-31T04:18:56;100086.20;;;6.84
69590;BMP180;56792;50.644;17.984;2022-10-31T04:21:31;100087.80;;;6.90
69590;BMP180;56792;50.644;17.984;2022-10-31T04:24:04;100089.40;;;6.90
69590;BMP180;56792;50.644;17.984;2022-10-31T04:26:37;100090.80;;;6.90
69590;BMP180;56792;50.644;17.984;2022-10-31T04:29:09;100093.60;;;6.90
69590;BMP180;56792;50.644;17.984;2022-10-31T04:31:42;100095.80;;;6.90
69590;BMP180;56792;50.644;17.984;2022-10-31T04:34:14;100100.80;;;6.92
69590;BMP180;56792;50.644;17.984;2022-10-31T04:36:46;100101.20;;;6.98
69590;BMP180;56792;50.644;17.984;2022-10-31T04:39:19;100103.20;;;7.00
69590;BMP180;56792;50.644;17.984;2022-10-31T04:41:59;100106.00;;;6.98
69590;BMP180;56792;50.644;17.984;2022-10-31T04:44:30;100110.20;;;7.00
69590;BMP180;56792;50.644;17.984;2022-10-31T04:47:04;100108.60;;;6.94
69590;BMP180;56792;50.644;17.984;2022-10-31T04:49:36;100108.00;;;6.92
69590;BMP180;56792;50.644;17.984;2022-10-31T04:52:08;100103.20;;;6.90
69590;BMP180;56792;50.644;17.984;2022-10-31T04:54:40;100102.40;;;6.90
69590;BMP180;56792;50.644;17.984;2022-10-31T04:57:45;100108.40;;;6.90
69590;BMP180;56792;50.644;17.984;2022-10-31T05:00:21;100108.80;;;6.94
69590;BMP180;56792;50.644;17.984;2022-10-31T05:02:55;100110.20;;;6.90
69590;BMP180;56792;50.644;17.984;2022-10-31T05:05:31;100109.20;;;6.90
69590;BMP180;56792;50.644;17.984;2022-10-31T05:08:05;100109.00;;;6.90
69590;BMP180;56792;50.644;17.984;2022-10-31T05:10:37;100106.40;;;7.00
69590;BMP180;56792;50.644;17.984;2022-10-31T05:13:10;100099.60;;;7.00
69590;BMP180;56792;50.644;17.984;2022-10-31T05:15:54;100105.00;;;7.10
69590;BMP180;56792;50.644;17.984;2022-10-31T05:18:45;100106.60;;;7.10
69590;BMP180;56792;50.644;17.984;2022-10-31T05:21:35;100110.80;;;7.10
69590;BMP180;56792;50.644;17.984;2022-10-31T05:24:09;100114.80;;;7.10
69590;BMP180;56792;50.644;17.984;2022-10-31T05:26:42;100113.00;;;7.10
69590;BMP180;56792;50.644;17.984;2022-10-31T05:29:14;100117.00;;;7.10
69590;BMP180;56792;50.644;17.984;2022-10-31T05:31:45;100113.40;;;7.10
69590;BMP180;56792;50.644;17.984;2022-10-31T05:34:36;100120.60;;;7.10
69590;BMP180;56792;50.644;17.984;2022-10-31T05:37:38;100117.40;;;7.10
69590;BMP180;56792;50.644;17.984;2022-10-31T05:40:13;100119.20;;;7.10
69590;BMP180;56792;50.644;17.984;2022-10-31T05:42:47;100119.00;;;7.10
69590;BMP180;56792;50.644;17.984;2022-10-31T05:45:21;100121.20;;;7.10
69590;BMP180;56792;50.644;17.984;2022-10-31T05:48:02;100118.60;;;7.10
69590;BMP180;56792;50.644;17.984;2022-10-31T05:50:53;100121.00;;;7.10
69590;BMP180;56792;50.644;17.984;2022-10-31T05:53:26;100118.60;;;7.10
69590;BMP180;56792;50.644;17.984;2022-10-31T05:56:00;100120.60;;;7.10
69590;BMP180;56792;50.644;17.984;2022-10-31T05:58:33;100119.40;;;7.20
69590;BMP180;56792;50.644;17.984;2022-10-31T06:01:09;100121.80;;;7.20
69590;BMP180;56792;50.644;17.984;2022-10-31T06:03:42;100122.20;;;7.20
69590;BMP180;56792;50.644;17.984;2022-10-31T06:06:14;100127.00;;;7.26
69590;BMP180;56792;50.644;17.984;2022-10-31T06:08:49;100131.00;;;7.30
69590;BMP180;56792;50.644;17.984;2022-10-31T06:11:25;100133.00;;;7.30
69590;BMP180;56792;50.644;17.984;2022-10-31T06:14:06;100136.60;;;7.30
69590;BMP180;56792;50.644;17.984;2022-10-31T06:16:45;100133.20;;;7.38
69590;BMP180;56792;50.644;17.984;2022-10-31T06:19:38;100133.80;;;7.40
69590;BMP180;56792;50.644;17.984;2022-10-31T06:22:12;100134.20;;;7.46
69590;BMP180;56792;50.644;17.984;2022-10-31T06:24:45;100138.00;;;7.50
69590;BMP180;56792;50.644;17.984;2022-10-31T06:27:33;100143.60;;;7.50
69590;BMP180;56792;50.644;17.984;2022-10-31T06:30:13;100146.80;;;7.60
69590;BMP180;56792;50.644;17.984;2022-10-31T06:32:49;100148.20;;;7.60
69590;BMP180;56792;50.644;17.984;2022-10-31T06:35:24;100152.80;;;7.70
69590;BMP180;56792;50.644;17.984;2022-10-31T06:37:57;100154.80;;;7.70
69590;BMP180;56792;50.644;17.984;2022-10-31T06:40:40;100156.60;;;7.80
69590;BMP180;56792;50.644;17.984;2022-10-31T06:43:22;100155.40;;;7.80
69590;BMP180;56792;50.644;17.984;2022-10-31T06:46:05;100154.40;;;7.90
69590;BMP180;56792;50.644;17.984;2022-10-31T06:48:45;100161.40;;;7.90
69590;BMP180;56792;50.644;17.984;2022-10-31T06:51:23;100156.00;;;8.00
69590;BMP180;56792;50.644;17.984;2022-10-31T06:53:56;100158.40;;;8.10
69590;BMP180;56792;50.644;17.984;2022-10-31T06:56:30;100164.40;;;8.10
69590;BMP180;56792;50.644;17.984;2022-10-31T06:59:03;100165.20;;;8.20
69590;BMP180;56792;50.644;17.984;2022-10-31T07:01:59;100167.80;;;8.30
69590;BMP180;56792;50.644;17.984;2022-10-31T07:04:33;100165.60;;;8.40
69590;BMP180;56792;50.644;17.984;2022-10-31T07:07:08;100169.60;;;8.50
69590;BMP180;56792;50.644;17.984;2022-10-31T07:09:40;100171.20;;;8.70
69590;BMP180;56792;50.644;17.984;2022-10-31T07:12:14;100168.60;;;8.90
69590;BMP180;56792;50.644;17.984;2022-10-31T07:14:51;100172.20;;;9.20
69590;BMP180;56792;50.644;17.984;2022-10-31T07:17:26;100177.20;;;9.50
69590;BMP180;56792;50.644;17.984;2022-10-31T07:19:59;100182.20;;;9.80
69590;BMP180;56792;50.644;17.984;2022-10-31T07:22:37;100180.60;;;10.10
69590;BMP180;56792;50.644;17.984;2022-10-31T07:25:13;100186.60;;;10.40
69590;BMP180;56792;50.644;17.984;2022-10-31T07:28:04;100192.40;;;10.70
69590;BMP180;56792;50.644;17.984;2022-10-31T07:30:37;100192.00;;;10.90
69590;BMP180;56792;50.644;17.984;2022-10-31T07:33:10;100199.60;;;11.20
69590;BMP180;56792;50.644;17.984;2022-10-31T07:36:06;100200.60;;;11.48
69590;BMP180;56792;50.644;17.984;2022-10-31T07:38:39;100197.60;;;11.70
69590;BMP180;56792;50.644;17.984;2022-10-31T07:41:11;100202.40;;;11.90
69590;BMP180;56792;50.644;17.984;2022-10-31T07:43:47;100203.60;;;12.10
69590;BMP180;56792;50.644;17.984;2022-10-31T07:46:21;100202.00;;;12.30
69590;BMP180;56792;50.644;17.984;2022-10-31T07:49:12;100202.60;;;12.52
69590;BMP180;56792;50.644;17.984;2022-10-31T07:52:04;100207.40;;;12.80
69590;BMP180;56792;50.644;17.984;2022-10-31T07:54:51;100204.80;;;13.00
69590;BMP180;56792;50.644;17.984;2022-10-31T07:57:27;100204.20;;;13.30
69590;BMP180;56792;50.644;17.984;2022-10-31T08:00:00;100206.20;;;13.60
69590;BMP180;56792;50.644;17.984;2022-10-31T08:02:34;100205.40;;;13.82
69590;BMP180;56792;50.644;17.984;2022-10-31T08:05:28;100209.80;;;14.10
69590;BMP180;56792;50.644;17.984;2022-10-31T08:08:28;100210.00;;;14.40
69590;BMP180;56792;50.644;17.984;2022-10-31T08:11:01;100211.60;;;14.70
69590;BMP180;56792;50.644;17.984;2022-10-31T08:13:34;100211.80;;;15.00
69590;BMP180;56792;50.644;17.984;2022-10-31T08:16:08;100211.80;;;15.20
69590;BMP180;56792;50.644;17.984;2022-10-31T08:18:46;100210.40;;;15.50
69590;BMP180;56792;50.644;17.984;2022-10-31T08:21:20;100212.60;;;15.70
69590;BMP180;56792;50.644;17.984;2022-10-31T08:23:53;100208.40;;;15.78
69590;BMP180;56792;50.644;17.984;2022-10-31T08:26:29;100208.80;;;15.70
69590;BMP180;56792;50.644;17.984;2022-10-31T08:29:03;100202.40;;;15.80
69590;BMP180;56792;50.644;17.984;2022-10-31T08:31:39;100205.60;;;16.00
69590;BMP180;56792;50.644;17.984;2022-10-31T08:34:32;100210.60;;;16.20
69590;BMP180;56792;50.644;17.984;2022-10-31T08:37:22;100203.00;;;16.30
69590;BMP180;56792;50.644;17.984;2022-10-31T08:39:57;100205.80;;;16.50
69590;BMP180;56792;50.644;17.984;2022-10-31T08:42:29;100201.00;;;16.60
69590;BMP180;56792;50.644;17.984;2022-10-31T08:45:02;100203.00;;;16.84
69590;BMP180;56792;50.644;17.984;2022-10-31T08:47:35;100205.80;;;17.20
69590;BMP180;56792;50.644;17.984;2022-10-31T08:50:09;100205.80;;;17.46
69590;BMP180;56792;50.644;17.984;2022-10-31T08:52:41;100201.80;;;17.70
69590;BMP180;56792;50.644;17.984;2022-10-31T08:55:13;100205.00;;;17.90
69590;BMP180;56792;50.644;17.984;2022-10-31T08:58:07;100202.60;;;18.10
69590;BMP180;56792;50.644;17.984;2022-10-31T09:00:47;100205.00;;;18.40
69590;BMP180;56792;50.644;17.984;2022-10-31T09:03:29;100203.40;;;18.60
69590;BMP180;56792;50.644;17.984;2022-10-31T09:06:09;100200.80;;;18.80
69590;BMP180;56792;50.644;17.984;2022-10-31T09:08:44;100203.60;;;19.12
69590;BMP180;56792;50.644;17.984;2022-10-31T09:11:16;100202.20;;;19.40
69590;BMP180;56792;50.644;17.984;2022-10-31T09:14:10;100203.20;;;19.76
69590;BMP180;56792;50.644;17.984;2022-10-31T09:16:43;100203.20;;;20.16
69590;BMP180;56792;50.644;17.984;2022-10-31T09:19:21;100205.00;;;20.62
69590;BMP180;56792;50.644;17.984;2022-10-31T09:21:55;100206.00;;;20.88
69590;BMP180;56792;50.644;17.984;2022-10-31T09:24:27;100205.40;;;21.16
69590;BMP180;56792;50.644;17.984;2022-10-31T09:26:59;100209.00;;;21.66
69590;BMP180;56792;50.644;17.984;2022-10-31T09:29:31;100208.40;;;22.40
69590;BMP180;56792;50.644;17.984;2022-10-31T09:32:04;100209.60;;;23.56
69590;BMP180;56792;50.644;17.984;2022-10-31T09:34:42;100208.60;;;24.78
69590;BMP180;56792;50.644;17.984;2022-10-31T09:37:15;100212.40;;;25.82
69590;BMP180;56792;50.644;17.984;2022-10-31T09:39:47;100220.00;;;26.48
69590;BMP180;56792;50.644;17.984;2022-10-31T09:42:50;100215.80;;;27.02
69590;BMP180;56792;50.644;17.984;2022-10-31T09:45:34;100219.60;;;27.84
69590;BMP180;56792;50.644;17.984;2022-10-31T09:48:36;100221.00;;;28.60
69590;BMP180;56792;50.644;17.984;2022-10-31T09:51:25;100220.20;;;29.32
69590;BMP180;56792;50.644;17.984;2022-10-31T09:54:18;100219.00;;;30.08
69590;BMP180;56792;50.644;17.984;2022-10-31T09:56:53;100218.20;;;30.40
69590;BMP180;56792;50.644;17.984;2022-10-31T09:59:33;100217.40;;;30.82
69590;BMP180;56792;50.644;17.984;2022-10-31T10:02:16;100218.60;;;31.54
69590;BMP180;56792;50.644;17.984;2022-10-31T10:04:57;100215.20;;;31.86
69590;BMP180;56792;50.644;17.984;2022-10-31T10:07:44;100218.40;;;32.34
69590;BMP180;56792;50.644;17.984;2022-10-31T10:10:43;100221.00;;;33.26
69590;BMP180;56792;50.644;17.984;2022-10-31T10:13:46;100223.00;;;33.92
69590;BMP180;56792;50.644;17.984;2022-10-31T10:16:38;100225.40;;;34.56
69590;BMP180;56792;50.644;17.984;2022-10-31T10:19:30;100227.80;;;34.96
69590;BMP180;56792;50.644;17.984;2022-10-31T10:22:12;100225.20;;;35.44
69590;BMP180;56792;50.644;17.984;2022-10-31T10:25:08;100227.60;;;36.00
69590;BMP180;56792;50.644;17.984;2022-10-31T10:28:01;100225.40;;;36.64
69590;BMP180;56792;50.644;17.984;2022-10-31T10:30:40;100225.40;;;36.70
69590;BMP180;56792;50.644;17.984;2022-10-31T10:33:18;100225.00;;;37.16
69590;BMP180;56792;50.644;17.984;2022-10-31T10:35:55;100228.80;;;37.50
69590;BMP180;56792;50.644;17.984;2022-10-31T10:38:36;100225.80;;;37.94
69590;BMP180;56792;50.644;17.984;2022-10-31T10:41:15;100226.60;;;38.32
69590;BMP180;56792;50.644;17.984;2022-10-31T10:43:50;100231.00;;;38.80
69590;BMP180;56792;50.644;17.984;2022-10-31T10:46:35;100231.20;;;39.10
69590;BMP180;56792;50.644;17.984;2022-10-31T10:49:35;100232.60;;;39.20
69590;BMP180;56792;50.644;17.984;2022-10-31T10:52:19;100232.00;;;39.50
69590;BMP180;56792;50.644;17.984;2022-10-31T10:55:06;100230.20;;;39.70
69590;BMP180;56792;50.644;17.984;2022-10-31T10:57:55;100226.40;;;39.80
69590;BMP180;56792;50.644;17.984;2022-10-31T11:00:31;100222.40;;;40.00
69590;BMP180;56792;50.644;17.984;2022-10-31T11:03:04;100221.20;;;40.16
69590;BMP180;56792;50.644;17.984;2022-10-31T11:05:41;100221.80;;;40.20
69590;BMP180;56792;50.644;17.984;2022-10-31T11:08:27;100221.00;;;40.32
69590;BMP180;56792;50.644;17.984;2022-10-31T11:11:22;100219.20;;;40.70
69590;BMP180;56792;50.644;17.984;2022-10-31T11:14:03;100220.60;;;41.10
69590;BMP180;56792;50.644;17.984;2022-10-31T11:16:39;100220.40;;;41.42
69590;BMP180;56792;50.644;17.984;2022-10-31T11:19:22;100220.80;;;42.10
69590;BMP180;56792;50.644;17.984;2022-10-31T11:22:07;100220.40;;;41.90
69590;BMP180;56792;50.644;17.984;2022-10-31T11:24:43;100217.20;;;42.12
69590;BMP180;56792;50.644;17.984;2022-10-31T11:27:22;100217.40;;;42.30
69590;BMP180;56792;50.644;17.984;2022-10-31T11:30:06;100222.40;;;42.20
69590;BMP180;56792;50.644;17.984;2022-10-31T11:32:48;100223.00;;;42.50
69590;BMP180;56792;50.644;17.984;2022-10-31T11:35:23;100218.60;;;42.48
69590;BMP180;56792;50.644;17.984;2022-10-31T11:38:00;100221.00;;;42.04
69590;BMP180;56792;50.644;17.984;2022-10-31T11:40:36;100217.20;;;41.90
69590;BMP180;56792;50.644;17.984;2022-10-31T11:43:16;100216.80;;;41.92
69590;BMP180;56792;50.644;17.984;2022-10-31T11:45:49;100214.80;;;42.00
69590;BMP180;56792;50.644;17.984;2022-10-31T11:48:24;100218.40;;;42.36
69590;BMP180;56792;50.644;17.984;2022-10-31T11:50:59;100220.20;;;42.40
69590;BMP180;56792;50.644;17.984;2022-10-31T11:53:34;100215.80;;;42.40
69590;BMP180;56792;50.644;17.984;2022-10-31T11:56:16;100217.00;;;42.38
69590;BMP180;56792;50.644;17.984;2022-10-31T11:59:01;100217.00;;;42.30
69590;BMP180;56792;50.644;17.984;2022-10-31T12:01:35;100212.80;;;42.28
69590;BMP180;56792;50.644;17.984;2022-10-31T12:04:10;100216.60;;;42.44
69590;BMP180;56792;50.644;17.984;2022-10-31T12:06:44;100215.80;;;42.28
69590;BMP180;56792;50.644;17.984;2022-10-31T12:09:29;100219.00;;;42.42
69590;BMP180;56792;50.644;17.984;2022-10-31T12:12:31;100211.20;;;42.70
69590;BMP180;56792;50.644;17.984;2022-10-31T12:15:25;100213.80;;;42.90
69590;BMP180;56792;50.644;17.984;2022-10-31T12:18:28;100211.40;;;43.10
69590;BMP180;56792;50.644;17.984;2022-10-31T12:21:24;100207.80;;;43.14
69590;BMP180;56792;50.644;17.984;2022-10-31T12:24:16;100211.00;;;42.64
69590;BMP180;56792;50.644;17.984;2022-10-31T12:27:06;100207.40;;;42.26
69590;BMP180;56792;50.644;17.984;2022-10-31T12:30:00;100209.60;;;42.50
69590;BMP180;56792;50.644;17.984;2022-10-31T12:32:54;100209.20;;;42.42
69590;BMP180;56792;50.644;17.984;2022-10-31T12:35:42;100208.60;;;42.38
69590;BMP180;56792;50.644;17.984;2022-10-31T12:38:37;100205.80;;;42.20
69590;BMP180;56792;50.644;17.984;2022-10-31T12:41:36;100207.60;;;42.10
69590;BMP180;56792;50.644;17.984;2022-10-31T12:44:30;100205.60;;;41.80
69590;BMP180;56792;50.644;17.984;2022-10-31T12:47:27;100204.80;;;41.40
69590;BMP180;56792;50.644;17.984;2022-10-31T12:50:18;100203.60;;;41.40
69590;BMP180;56792;50.644;17.984;2022-10-31T12:53:03;100201.60;;;41.58
69590;BMP180;56792;50.644;17.984;2022-10-31T12:56:00;100202.20;;;41.70
69590;BMP180;56792;50.644;17.984;2022-10-31T12:58:43;100200.20;;;41.70
69590;BMP180;56792;50.644;17.984;2022-10-31T13:01:24;100194.60;;;41.20
69590;BMP180;56792;50.644;17.984;2022-10-31T13:04:05;100197.80;;;41.00
69590;BMP180;56792;50.644;17.984;2022-10-31T13:06:49;100195.00;;;40.80
69590;BMP180;56792;50.644;17.984;2022-10-31T13:09:30;100188.20;;;40.70
69590;BMP180;56792;50.644;17.984;2022-10-31T13:12:10;100191.80;;;40.80
69590;BMP180;56792;50.644;17.984;2022-10-31T13:14:48;100194.40;;;40.70
69590;BMP180;56792;50.644;17.984;2022-10-31T13:17:30;100190.20;;;40.40
69590;BMP180;56792;50.644;17.984;2022-10-31T13:20:20;100189.80;;;40.30
69590;BMP180;56792;50.644;17.984;2022-10-31T13:23:00;100189.00;;;40.20
69590;BMP180;56792;50.644;17.984;2022-10-31T13:25:46;100190.80;;;40.00
69590;BMP180;56792;50.644;17.984;2022-10-31T13:28:28;100191.60;;;39.90
69590;BMP180;56792;50.644;17.984;2022-10-31T13:31:03;100189.60;;;39.26
69590;BMP180;56792;50.644;17.984;2022-10-31T13:33:42;100191.40;;;39.10
69590;BMP180;56792;50.644;17.984;2022-10-31T13:36:28;100189.20;;;38.90
69590;BMP180;56792;50.644;17.984;2022-10-31T13:39:18;100187.20;;;38.74
69590;BMP180;56792;50.644;17.984;2022-10-31T13:41:56;100184.40;;;38.56
69590;BMP180;56792;50.644;17.984;2022-10-31T13:44:36;100190.20;;;37.84
69590;BMP180;56792;50.644;17.984;2022-10-31T13:47:26;100181.00;;;37.12
69590;BMP180;56792;50.644;17.984;2022-10-31T13:50:25;100186.20;;;37.20
69590;BMP180;56792;50.644;17.984;2022-10-31T13:53:19;100186.80;;;37.30
69590;BMP180;56792;50.644;17.984;2022-10-31T13:56:05;100183.40;;;35.90
69590;BMP180;56792;50.644;17.984;2022-10-31T13:58:59;100183.40;;;36.00
69590;BMP180;56792;50.644;17.984;2022-10-31T14:01:33;100184.40;;;35.94
69590;BMP180;56792;50.644;17.984;2022-10-31T14:04:15;100176.00;;;35.68
69590;BMP180;56792;50.644;17.984;2022-10-31T14:06:57;100176.80;;;35.10
69590;BMP180;56792;50.644;17.984;2022-10-31T14:09:36;100178.80;;;34.70
69590;BMP180;56792;50.644;17.984;2022-10-31T14:12:27;100181.60;;;34.56
69590;BMP180;56792;50.644;17.984;2022-10-31T14:15:12;100183.80;;;33.54
69590;BMP180;56792;50.644;17.984;2022-10-31T14:17:57;100177.80;;;32.44
69590;BMP180;56792;50.644;17.984;2022-10-31T14:20:40;100173.60;;;31.26
69590;BMP180;56792;50.644;17.984;2022-10-31T14:23:37;100163.60;;;30.34
69590;BMP180;56792;50.644;17.984;2022-10-31T14:26:35;100162.00;;;29.40
69590;BMP180;56792;50.644;17.984;2022-10-31T14:29:31;100166.60;;;28.58
69590;BMP180;56792;50.644;17.984;2022-10-31T14:32:24;100160.40;;;27.80
69590;BMP180;56792;50.644;17.984;2022-10-31T14:34:59;100158.80;;;27.20
69590;BMP180;56792;50.644;17.984;2022-10-31T14:38:00;100154.40;;;26.66
69590;BMP180;56792;50.644;17.984;2022-10-31T14:40:48;100154.00;;;26.02
69590;BMP180;56792;50.644;17.984;2022-10-31T14:44:01;100153.00;;;25.50
69590;BMP180;56792;50.644;17.984;2022-10-31T14:46:47;100148.60;;;24.96
69590;BMP180;56792;50.644;17.984;2022-10-31T14:49:46;100148.00;;;24.48
69590;BMP180;56792;50.644;17.984;2022-10-31T14:52:24;100146.20;;;24.02
69590;BMP180;56792;50.644;17.984;2022-10-31T14:55:05;100144.40;;;23.60
69590;BMP180;56792;50.644;17.984;2022-10-31T14:57:44;100145.40;;;23.12
69590;BMP180;56792;50.644;17.984;2022-10-31T15:00:26;100147.00;;;22.70
69590;BMP180;56792;50.644;17.984;2022-10-31T15:03:15;100144.80;;;22.30
69590;BMP180;56792;50.644;17.984;2022-10-31T15:05:53;100135.40;;;21.90